Time;durP1;ratioP1;P1;durP2;ratioP2;P2;SDS_P1;SDS_P2;PMS_P1;PMS_P2;Temp;Humidity;BMP_temperature;BMP_pressure;BME280_temperature;BME280_humidity;BME280_pressure;Samples;Min_cycle;Max_cycle;Signal;HPM_P1;HPM_P2
2022/07/14 00:02:19;;;;;;;4.00;0.70;;;;;;;25.82;60.57;100445.63;4967240;28;20463;-54
2022/07/14 00:04:46;;;;;;;2.23;1.43;;;;;;;25.52;61.76;100440.16;4965595;28;20460;-54
2022/07/14 00:07:13;;;;;;;0.77;0.73;;;;;;;25.54;61.73;100441.75;4972902;28;21014;-52
2022/07/14 00:09:39;;;;;;;1.20;0.97;;;;;;;25.53;61.59;100442.75;4973215;28;20492;-54
2022/07/14 00:12:06;;;;;;;0.80;0.77;;;;;;;25.55;62.33;100445.31;4960802;28;20489;-54
2022/07/14 00:14:33;;;;;;;3.07;1.73;;;;;;;25.37;62.96;100442.38;4973075;28;20462;-54
2022/07/14 00:16:59;;;;;;;0.90;0.90;;;;;;;25.44;61.37;100443.53;4974864;28;20450;-53
2022/07/14 00:19:26;;;;;;;0.77;0.70;;;;;;;25.43;61.93;100443.69;4976197;28;20884;-51
2022/07/14 00:21:53;;;;;;;1.23;1.13;;;;;;;25.14;63.70;100448.97;4957332;28;20471;-54
2022/07/14 00:24:19;;;;;;;1.20;1.10;;;;;;;25.07;63.86;100444.03;4970352;28;20460;-52
2022/07/14 00:26:46;;;;;;;1.03;0.93;;;;;;;25.15;63.44;100442.50;4976557;28;20450;-53
2022/07/14 00:29:12;;;;;;;3.47;1.00;;;;;;;24.85;64.76;100446.00;4976084;28;20484;-54
2022/07/14 00:31:39;;;;;;;0.93;0.90;;;;;;;24.81;65.12;100437.25;4975940;28;20493;-54
2022/07/14 00:34:05;;;;;;;3.90;0.93;;;;;;;24.84;64.10;100436.97;4976071;28;20457;-53
2022/07/14 00:36:32;;;;;;;1.43;1.17;;;;;;;24.61;64.77;100427.19;4976176;28;20466;-54
2022/07/14 00:38:58;;;;;;;0.90;0.80;;;;;;;24.87;64.94;100431.28;4975971;28;20556;-54
2022/07/14 00:41:25;;;;;;;0.93;0.83;;;;;;;24.86;64.27;100429.53;4969382;28;20455;-54
2022/07/14 00:43:51;;;;;;;2.90;0.63;;;;;;;24.81;64.34;100421.78;4970227;28;20936;-54
2022/07/14 00:46:18;;;;;;;6.40;0.83;;;;;;;24.72;63.96;100417.13;4976064;28;20458;-54
2022/07/14 00:48:44;;;;;;;2.30;1.30;;;;;;;24.55;64.49;100422.28;4975306;28;20470;-53
2022/07/14 00:51:11;;;;;;;1.10;0.90;;;;;;;24.47;64.71;100428.38;4975827;28;20501;-53
2022/07/14 00:53:37;;;;;;;0.83;0.83;;;;;;;24.09;66.17;100420.66;4976836;28;20461;-53
2022/07/14 00:56:04;;;;;;;1.43;1.33;;;;;;;24.16;65.73;100425.47;4979914;28;20455;-52
2022/07/14 00:58:30;;;;;;;1.10;1.00;;;;;;;24.07;66.38;100420.78;4970464;28;20470;-54
2022/07/14 01:00:58;;;;;;;11.43;1.33;;;;;;;24.05;66.51;100430.91;4975692;28;20453;-54
2022/07/14 01:03:24;;;;;;;0.80;0.80;;;;;;;23.82;66.96;100419.22;4964098;28;20459;-53
2022/07/14 01:05:51;;;;;;;0.80;0.77;;;;;;;23.60;67.21;100424.69;4975901;28;20454;-52
2022/07/14 01:08:17;;;;;;;1.67;1.00;;;;;;;23.52;67.01;100433.41;4975499;28;20484;-52
2022/07/14 01:10:44;;;;;;;3.90;1.10;;;;;;;23.51;66.74;100426.25;4967429;28;20510;-52
2022/07/14 01:13:10;;;;;;;0.90;0.80;;;;;;;23.40;67.38;100420.81;4970829;28;20815;-53
2022/07/14 01:15:36;;;;;;;1.00;0.90;;;;;;;23.42;67.64;100424.25;4975225;28;20944;-54
2022/07/14 01:18:03;;;;;;;1.03;0.93;;;;;;;23.24;67.94;100429.31;4975140;28;20471;-52
2022/07/14 01:20:30;;;;;;;0.60;0.47;;;;;;;23.16;68.31;100417.31;4975326;28;21046;-54
2022/07/14 01:22:57;;;;;;;1.93;1.00;;;;;;;23.23;67.54;100410.44;4975482;28;20457;-53
2022/07/14 01:25:24;;;;;;;0.90;0.90;;;;;;;23.35;67.24;100412.19;4975295;28;20454;-54
2022/07/14 01:27:50;;;;;;;1.73;0.97;;;;;;;23.04;68.02;100417.34;4975439;28;20477;-53
2022/07/14 01:30:17;;;;;;;0.93;0.83;;;;;;;22.96;68.18;100418.91;4975223;28;20494;-53
2022/07/14 01:32:43;;;;;;;2.70;0.90;;;;;;;22.91;67.80;100426.53;4975076;28;20461;-53
2022/07/14 01:35:10;;;;;;;2.13;0.80;;;;;;;22.16;71.06;100415.97;4975164;28;20476;-51
2022/07/14 01:37:37;;;;;;;1.20;0.80;;;;;;;22.30;69.70;100413.06;4975157;28;20504;-51
2022/07/14 01:40:04;;;;;;;1.10;1.00;;;;;;;22.43;69.20;100410.31;4974755;28;20458;-51
2022/07/14 01:42:31;;;;;;;7.13;0.90;;;;;;;22.34;70.19;100403.75;4962044;28;20461;-51
2022/07/14 01:44:57;;;;;;;0.70;0.70;;;;;;;22.51;68.98;100388.06;4974878;28;20450;-52
2022/07/14 01:47:25;;;;;;;0.80;0.63;;;;;;;22.36;70.30;100395.53;4974955;28;20517;-52
2022/07/14 01:49:52;;;;;;;3.57;0.87;;;;;;;22.24;69.98;100389.19;4974680;28;20455;-52
2022/07/14 01:52:18;;;;;;;6.53;1.03;;;;;;;22.11;70.24;100393.78;4974904;28;20465;-52
2022/07/14 01:54:45;;;;;;;1.00;0.80;;;;;;;22.12;70.06;100396.38;4984838;28;20449;-51
2022/07/14 01:57:12;;;;;;;1.30;0.67;;;;;;;22.06;70.41;100396.81;4964642;28;20452;-52
2022/07/14 01:59:39;;;;;;;0.90;0.70;;;;;;;22.00;70.68;100383.72;4974955;28;20461;-52
2022/07/14 02:02:05;;;;;;;1.17;1.07;;;;;;;22.05;70.63;100389.69;4970330;28;20532;-52
2022/07/14 02:04:32;;;;;;;0.70;0.60;;;;;;;21.96;70.58;100384.94;4966233;28;20458;-51
2022/07/14 02:06:58;;;;;;;0.70;0.63;;;;;;;22.09;70.44;100393.91;4974596;28;20464;-52
2022/07/14 02:12:10;;;;;;;0.80;0.70;;;;;;;21.81;71.34;100394.19;4974578;28;20451;-52
2022/07/14 02:12:11;;;;;;;1.50;0.70;;;;;;;21.91;71.28;100387.09;4962340;28;20442;-54
2022/07/14 02:14:38;;;;;;;1.80;1.37;;;;;;;21.81;71.28;100383.38;4974676;28;20462;-52
2022/07/14 02:17:04;;;;;;;11.93;1.10;;;;;;;21.87;71.10;100391.03;4974267;28;20455;-53
2022/07/14 02:19:31;;;;;;;2.23;1.43;;;;;;;21.72;71.43;100390.31;4974527;28;20450;-51
2022/07/14 02:21:57;;;;;;;1.10;1.00;;;;;;;21.59;71.52;100382.22;4974356;28;20461;-51
2022/07/14 02:24:24;;;;;;;0.80;0.70;;;;;;;21.81;70.84;100380.66;4974018;28;20458;-52
2022/07/14 02:26:51;;;;;;;1.13;0.63;;;;;;;21.56;71.76;100387.00;4974400;28;20462;-52
2022/07/14 02:29:19;;;;;;;0.80;0.80;;;;;;;21.44;72.14;100388.75;4974121;28;20557;-52
2022/07/14 02:31:46;;;;;;;1.00;1.00;;;;;;;21.47;72.43;100404.75;4973795;28;20498;-52
2022/07/14 02:34:13;;;;;;;1.00;0.70;;;;;;;21.59;72.16;100411.97;4973892;28;20470;-52
2022/07/14 02:36:40;;;;;;;0.80;0.63;;;;;;;21.45;72.73;100417.53;4973874;28;20470;-52
2022/07/14 02:39:08;;;;;;;3.07;0.80;;;;;;;21.23;73.64;100415.44;4973419;28;20478;-52
2022/07/14 02:41:34;;;;;;;0.67;0.60;;;;;;;21.03;74.19;100413.28;4954554;28;20447;-51
2022/07/14 02:44:01;;;;;;;1.13;1.03;;;;;;;20.93;74.62;100413.06;4970240;28;20454;-52
2022/07/14 02:46:27;;;;;;;4.77;1.03;;;;;;;20.36;76.62;100407.94;4973924;28;20833;-53
2022/07/14 02:48:54;;;;;;;0.87;0.73;;;;;;;20.50;76.95;100408.88;4974187;28;20987;-48
2022/07/14 02:51:20;;;;;;;1.00;0.90;;;;;;;20.65;76.26;100395.19;4973444;28;21023;-49
2022/07/14 02:53:47;;;;;;;1.80;0.80;;;;;;;21.25;74.72;100396.47;4975750;28;21019;-49
2022/07/14 02:56:13;;;;;;;1.00;0.87;;;;;;;20.87;75.67;100391.00;4975004;28;20800;-48
2022/07/14 02:58:40;;;;;;;0.87;0.83;;;;;;;20.57;76.88;100394.00;4969844;28;20478;-48
2022/07/14 03:01:08;;;;;;;1.60;1.10;;;;;;;20.15;78.79;100403.09;4973286;28;20457;-48
2022/07/14 03:03:36;;;;;;;0.80;0.80;;;;;;;20.59;76.95;100398.31;4960482;28;20911;-48
2022/07/14 03:06:10;;;;;;;0.80;0.60;;;;;;;20.59;76.94;100392.91;4973482;28;20959;-50
2022/07/14 03:08:38;;;;;;;0.93;0.73;;;;;;;20.73;76.63;100394.66;4973270;28;20916;-48
2022/07/14 03:11:05;;;;;;;1.30;1.20;;;;;;;20.56;77.49;100403.03;4962755;28;20499;-48
2022/07/14 03:13:33;;;;;;;2.20;0.80;;;;;;;20.65;77.13;100400.59;4971525;28;20481;-48
2022/07/14 03:15:59;;;;;;;0.87;0.73;;;;;;;20.55;78.02;100396.78;4974664;28;20473;-50
2022/07/14 03:18:28;;;;;;;1.13;0.73;;;;;;;20.66;77.93;100398.75;4975050;28;20475;-49
2022/07/14 03:20:54;;;;;;;4.20;1.17;;;;;;;20.70;77.96;100400.28;4973292;28;20948;-48
2022/07/14 03:23:21;;;;;;;2.90;1.83;;;;;;;20.79;77.78;100394.22;4973499;28;20454;-48
2022/07/14 03:25:48;;;;;;;1.67;1.57;;;;;;;20.65;78.32;100394.31;4973401;28;20461;-49
2022/07/14 03:28:15;;;;;;;2.13;1.13;;;;;;;20.74;78.41;100399.09;4972850;28;20818;-49
2022/07/14 03:30:42;;;;;;;3.27;0.83;;;;;;;20.75;78.43;100403.53;4973535;28;20501;-48
2022/07/14 03:33:09;;;;;;;0.80;0.80;;;;;;;20.86;77.69;100409.06;4973409;28;20458;-49
2022/07/14 03:35:37;;;;;;;1.40;1.20;;;;;;;20.89;77.86;100405.28;4973132;28;20928;-48
2022/07/14 03:38:03;;;;;;;1.60;1.17;;;;;;;20.84;77.95;100407.44;4973397;28;20478;-48
2022/07/14 03:40:50;;;;;;;3.20;2.63;;;;;;;20.52;79.22;100399.69;4973090;28;20462;-48
2022/07/14 03:43:16;;;;;;;1.53;0.60;;;;;;;20.48;79.44;100400.88;4964655;28;20461;-48
2022/07/14 03:45:43;;;;;;;2.50;0.80;;;;;;;20.49;79.34;100397.22;4969186;28;20454;-49
2022/07/14 03:48:09;;;;;;;5.73;1.10;;;;;;;20.76;77.72;100405.25;4972987;28;20501;-48
2022/07/14 03:50:36;;;;;;;0.70;0.60;;;;;;;20.54;78.63;100395.06;4972893;28;20549;-49
2022/07/14 03:53:04;;;;;;;0.93;0.80;;;;;;;20.46;79.26;100388.47;4977254;28;20454;-48
2022/07/14 03:55:31;;;;;;;5.13;1.13;;;;;;;20.36;79.28;100374.66;4986877;28;20450;-50
2022/07/14 03:58:00;;;;;;;1.40;0.73;;;;;;;20.53;79.14;100370.84;4967483;28;20561;-48
2022/07/14 04:00:27;;;;;;;1.40;1.10;;;;;;;20.22;80.62;100374.75;4976528;28;20457;-49
2022/07/14 04:02:54;;;;;;;1.93;0.83;;;;;;;20.10;81.79;100368.31;4966430;28;20458;-49
2022/07/14 04:05:21;;;;;;;0.60;0.50;;;;;;;19.99;82.09;100357.38;4974509;28;20466;-49
2022/07/14 04:07:48;;;;;;;1.30;1.00;;;;;;;19.89;82.99;100343.66;4976779;28;20478;-48
2022/07/14 04:10:14;;;;;;;0.60;0.50;;;;;;;20.07;82.17;100325.34;4971896;28;20836;-48
2022/07/14 04:12:41;;;;;;;8.17;1.27;;;;;;;20.28;81.26;100323.88;4968251;28;20490;-49
2022/07/14 04:15:08;;;;;;;1.33;0.70;;;;;;;20.47;80.69;100325.38;4976719;28;20461;-48
2022/07/14 04:17:34;;;;;;;1.57;1.47;;;;;;;20.62;80.79;100322.47;4976527;28;20476;-49
2022/07/14 04:20:01;;;;;;;5.23;1.57;;;;;;;20.90;79.51;100352.97;4976289;28;20458;-48
2022/07/14 04:22:28;;;;;;;1.23;1.13;;;;;;;21.19;78.30;100391.44;4976654;28;20539;-49
2022/07/14 04:25:06;;;;;;;5.50;1.27;;;;;;;21.21;78.29;100405.72;4957342;28;20451;-48
2022/07/14 04:27:32;;;;;;;1.80;1.40;;;;;;;21.23;77.99;100391.09;4971623;28;20470;-50
2022/07/14 04:29:59;;;;;;;3.40;1.07;;;;;;;21.11;78.79;100380.31;4956941;28;20462;-49
2022/07/14 04:32:25;;;;;;;1.90;1.47;;;;;;;21.17;78.91;100377.16;4970032;28;20908;-49
2022/07/14 04:34:52;;;;;;;0.80;0.73;;;;;;;21.27;78.52;100370.19;4976219;28;20469;-49
2022/07/14 04:37:18;;;;;;;1.20;0.80;;;;;;;21.29;78.90;100370.94;4976500;28;20458;-49
2022/07/14 04:39:44;;;;;;;1.20;0.97;;;;;;;21.27;79.04;100362.06;4976246;28;20456;-49
2022/07/14 04:42:11;;;;;;;2.73;1.27;;;;;;;21.40;78.10;100357.50;4963317;28;20451;-50
2022/07/14 04:44:37;;;;;;;1.03;1.00;;;;;;;21.47;77.99;100356.06;4975965;28;20454;-49
2022/07/14 04:47:04;;;;;;;2.47;1.23;;;;;;;21.62;77.98;100364.91;4976106;28;20460;-50
2022/07/14 04:52:15;;;;;;;2.13;1.73;;;;;;;21.84;76.53;100372.31;4975983;28;20478;-49
2022/07/14 04:54:45;;;;;;;1.33;1.10;;;;;;;21.58;77.44;100372.38;4985816;28;21018;-49
2022/07/14 04:57:12;;;;;;;1.23;1.13;;;;;;;21.69;76.89;100381.56;4965394;28;20788;-49
2022/07/14 04:59:38;;;;;;;1.33;0.87;;;;;;;21.70;77.09;100384.16;4975893;28;20461;-49
2022/07/14 05:02:05;;;;;;;1.43;1.27;;;;;;;21.67;77.50;100370.00;4971224;28;20953;-48
2022/07/14 05:04:32;;;;;;;7.80;1.77;;;;;;;21.50;78.22;100380.19;4956280;28;20941;-48
2022/07/14 05:06:59;;;;;;;6.23;0.77;;;;;;;21.49;78.39;100372.19;4973413;28;20847;-49
2022/07/14 05:09:25;;;;;;;2.77;1.10;;;;;;;21.68;77.74;100380.69;4975886;28;20453;-48
2022/07/14 05:11:53;;;;;;;3.97;1.10;;;;;;;21.62;77.51;100380.25;4962143;28;21030;-50
2022/07/14 05:14:20;;;;;;;3.43;1.30;;;;;;;21.66;78.43;100384.50;4975668;28;20833;-48
2022/07/14 05:16:48;;;;;;;1.93;1.10;;;;;;;21.87;77.45;100388.31;4975688;28;20454;-48
2022/07/14 05:19:35;;;;;;;1.33;0.80;;;;;;;21.81;77.72;100386.94;4975647;28;20449;-48
2022/07/14 05:22:01;;;;;;;17.10;1.53;;;;;;;21.94;76.83;100386.91;4975645;28;20451;-48
2022/07/14 05:24:28;;;;;;;13.10;1.83;;;;;;;22.13;76.28;100386.41;4975450;28;20450;-48
2022/07/14 05:26:57;;;;;;;46.30;2.10;;;;;;;22.21;76.06;100386.72;4975282;28;20461;-48
2022/07/14 05:29:23;;;;;;;4.00;1.83;;;;;;;22.54;74.60;100394.09;4975325;28;20554;-48
2022/07/14 05:31:51;;;;;;;10.70;1.40;;;;;;;22.61;74.38;100384.50;4976851;28;20522;-48
2022/07/14 05:34:26;;;;;;;9.20;1.10;;;;;;;22.53;74.65;100384.25;4975736;28;20821;-49
2022/07/14 05:36:53;;;;;;;1.93;1.27;;;;;;;22.61;74.75;100389.94;4975044;28;20477;-49
2022/07/14 05:39:19;;;;;;;1.80;1.33;;;;;;;22.85;74.76;100386.34;4975288;28;20556;-49
2022/07/14 05:41:46;;;;;;;8.93;1.33;;;;;;;23.59;72.01;100387.69;4965228;28;20459;-49
2022/07/14 05:44:12;;;;;;;1.43;1.33;;;;;;;23.40;71.49;100390.97;4971852;28;20458;-49
2022/07/14 05:46:39;;;;;;;1.20;1.10;;;;;;;23.26;72.17;100381.22;4975006;28;20833;-51
2022/07/14 05:49:06;;;;;;;1.00;1.00;;;;;;;23.26;72.06;100391.19;4974904;28;20474;-49
2022/07/14 05:51:33;;;;;;;0.80;0.63;;;;;;;23.16;73.30;100382.94;4974834;28;20494;-50
2022/07/14 05:53:59;;;;;;;2.70;1.63;;;;;;;23.35;72.67;100394.06;4974602;28;20451;-49
2022/07/14 05:56:26;;;;;;;2.77;1.60;;;;;;;23.29;72.38;100391.81;4963994;28;20455;-49
2022/07/14 05:58:53;;;;;;;8.67;1.40;;;;;;;23.32;73.06;100396.16;4972735;28;20481;-49
2022/07/14 06:01:21;;;;;;;2.50;1.00;;;;;;;23.41;73.66;100389.09;4974752;28;20466;-49
2022/07/14 06:03:53;;;;;;;11.83;1.67;;;;;;;23.37;73.63;100382.22;4961624;28;20457;-49
2022/07/14 06:06:20;;;;;;;1.87;1.37;;;;;;;23.89;72.22;100378.88;4974566;28;21035;-48
2022/07/14 06:08:47;;;;;;;1.77;1.67;;;;;;;24.05;70.16;100373.88;4974304;28;20847;-50
2022/07/14 06:11:14;;;;;;;1.20;1.10;;;;;;;24.78;67.78;100374.94;4962434;28;20491;-49
2022/07/14 06:13:41;;;;;;;1.63;1.53;;;;;;;24.69;67.82;100373.03;4972595;28;20450;-49
2022/07/14 06:16:09;;;;;;;1.03;0.93;;;;;;;25.18;65.98;100371.50;4974415;28;20947;-49
2022/07/14 06:18:36;;;;;;;2.40;2.30;;;;;;;24.63;67.84;100368.97;4974313;28;20505;-48
2022/07/14 06:21:10;;;;;;;1.40;1.20;;;;;;;25.58;66.06;100376.97;4974365;28;20454;-49
2022/07/14 06:23:37;;;;;;;1.60;0.90;;;;;;;25.91;63.67;100368.53;4974583;28;20446;-48
2022/07/14 06:26:08;;;;;;;2.07;1.40;;;;;;;26.61;61.84;100382.94;4974150;28;20892;-50
2022/07/14 06:28:35;;;;;;;3.20;1.40;;;;;;;27.16;60.04;100380.44;4974309;28;20470;-50
2022/07/14 06:31:02;;;;;;;1.00;0.90;;;;;;;27.56;57.88;100374.69;4973890;28;20458;-52
2022/07/14 06:33:29;;;;;;;1.33;1.23;;;;;;;27.74;55.88;100372.88;4974184;28;20461;-50
2022/07/14 06:35:55;;;;;;;5.60;1.00;;;;;;;27.34;56.17;100367.72;4974002;28;20466;-50
2022/07/14 06:38:29;;;;;;;3.03;1.57;;;;;;;26.64;58.20;100362.69;4974072;28;20477;-52
2022/07/14 06:40:55;;;;;;;1.17;1.03;;;;;;;26.91;58.55;100362.78;4971563;28;20981;-51
2022/07/14 06:43:23;;;;;;;5.80;1.17;;;;;;;27.22;57.43;100360.72;4963744;28;20530;-50
2022/07/14 06:45:50;;;;;;;3.50;1.23;;;;;;;27.37;56.29;100359.22;4973872;28;20463;-50
2022/07/14 06:48:16;;;;;;;1.43;1.33;;;;;;;27.34;56.23;100362.25;4974042;28;20478;-52
2022/07/14 06:50:43;;;;;;;2.07;1.63;;;;;;;26.88;56.45;100352.19;4973936;28;20454;-50
2022/07/14 06:53:10;;;;;;;1.70;1.60;;;;;;;26.64;58.41;100352.66;4973504;28;20505;-51
2022/07/14 06:55:36;;;;;;;1.57;1.47;;;;;;;26.78;57.28;100354.91;4982875;28;20548;-50
2022/07/14 06:58:03;;;;;;;29.87;1.57;;;;;;;26.42;59.24;100352.94;4965054;28;20474;-50
2022/07/14 07:00:30;;;;;;;5.03;1.50;;;;;;;26.28;60.12;100349.59;4973642;28;20464;-50
2022/07/14 07:02:56;;;;;;;4.10;1.43;;;;;;;26.26;59.53;100353.47;4962815;28;20459;-50
2022/07/14 07:08:08;;;;;;;2.27;1.43;;;;;;;26.54;59.31;100352.66;4973600;28;20469;-50
2022/07/14 07:10:40;;;;;;;2.10;2.00;;;;;;;26.44;59.31;100353.66;4966531;28;20462;-50
2022/07/14 07:13:10;;;;;;;1.53;1.43;;;;;;;26.68;59.03;100362.25;4968514;28;21010;-50
2022/07/14 07:15:40;;;;;;;1.30;1.20;;;;;;;26.77;58.65;100369.56;4973358;28;20456;-50
2022/07/14 07:18:07;;;;;;;1.37;1.27;;;;;;;26.07;60.48;100358.94;4973183;28;20521;-50
2022/07/14 07:20:35;;;;;;;1.80;1.70;;;;;;;26.24;59.89;100360.94;4973412;28;20523;-50
2022/07/14 07:23:03;;;;;;;8.90;1.53;;;;;;;26.45;59.47;100358.09;4973438;28;20462;-51
2022/07/14 07:25:30;;;;;;;1.40;1.30;;;;;;;26.69;58.00;100360.38;4973567;28;20455;-50
2022/07/14 07:27:56;;;;;;;1.20;1.10;;;;;;;26.73;58.29;100368.16;4972971;28;20466;-50
2022/07/14 07:30:23;;;;;;;2.03;1.50;;;;;;;26.45;59.62;100358.09;4973320;28;20454;-51
2022/07/14 07:32:50;;;;;;;1.00;1.00;;;;;;;26.51;59.35;100360.25;4972947;28;20494;-50
2022/07/14 07:35:17;;;;;;;1.93;1.00;;;;;;;26.73;58.92;100364.56;4973348;28;20505;-50
2022/07/14 07:37:43;;;;;;;9.20;1.43;;;;;;;26.77;58.57;100366.84;4973027;28;20573;-50
2022/07/14 07:40:10;;;;;;;0.93;0.83;;;;;;;27.09;57.93;100363.78;4973476;28;20450;-50
2022/07/14 07:42:36;;;;;;;1.40;1.30;;;;;;;26.83;58.48;100362.66;4960133;28;20452;-50
2022/07/14 07:45:03;;;;;;;2.70;1.33;;;;;;;26.62;59.96;100353.81;4974233;28;20457;-50
2022/07/14 07:47:30;;;;;;;5.40;2.20;;;;;;;27.08;58.54;100364.78;4973876;28;20480;-52
2022/07/14 07:49:56;;;;;;;1.93;1.83;;;;;;;27.05;59.17;100356.91;4973266;28;20450;-49
2022/07/14 07:52:23;;;;;;;3.03;2.40;;;;;;;27.05;59.28;100347.84;4973348;28;20490;-51
2022/07/14 07:54:49;;;;;;;1.73;1.63;;;;;;;26.76;60.68;100348.75;4984348;28;20450;-50
2022/07/14 07:57:37;;;;;;;1.63;1.50;;;;;;;26.59;61.11;100341.31;4959787;28;20842;-50
2022/07/14 08:00:05;;;;;;;2.13;1.30;;;;;;;26.88;60.17;100345.88;4972146;28;20458;-50
2022/07/14 08:02:32;;;;;;;4.83;1.70;;;;;;;26.99;60.26;100349.25;4965276;28;20459;-50
2022/07/14 08:04:59;;;;;;;1.50;1.40;;;;;;;27.07;60.02;100345.84;4968051;28;20881;-49
2022/07/14 08:07:25;;;;;;;1.70;1.60;;;;;;;27.35;58.97;100341.28;4973089;28;20474;-50
2022/07/14 08:09:51;;;;;;;7.57;1.40;;;;;;;27.39;58.65;100340.81;4971699;28;20457;-51
2022/07/14 08:12:24;;;;;;;2.90;1.50;;;;;;;27.25;59.30;100335.00;4962344;28;20486;-50
2022/07/14 08:14:54;;;;;;;2.70;1.60;;;;;;;27.02;60.23;100332.66;4973274;28;20454;-50
2022/07/14 08:17:22;;;;;;;3.43;3.20;;;;;;;26.69;60.87;100328.50;4973089;28;20477;-50
2022/07/14 08:19:49;;;;;;;1.43;1.33;;;;;;;27.16;60.22;100342.22;4972693;28;20914;-50
2022/07/14 08:22:26;;;;;;;2.53;1.23;;;;;;;27.25;59.28;100346.75;4972953;28;20450;-51
2022/07/14 08:24:54;;;;;;;1.07;0.97;;;;;;;26.66;61.39;100353.34;4972640;28;20816;-51
2022/07/14 08:27:22;;;;;;;0.80;0.60;;;;;;;26.93;60.38;100343.53;4973063;28;20470;-50
2022/07/14 08:29:49;;;;;;;2.20;1.47;;;;;;;27.01;60.32;100347.31;4972689;28;20832;-50
2022/07/14 08:32:17;;;;;;;8.50;1.23;;;;;;;27.02;60.52;100350.88;4972624;28;20512;-50
2022/07/14 08:34:44;;;;;;;2.10;1.80;;;;;;;27.10;60.37;100346.38;4972632;28;20458;-49
2022/07/14 08:37:10;;;;;;;3.80;1.73;;;;;;;27.05;60.03;100345.13;4973949;28;20482;-50
2022/07/14 08:39:37;;;;;;;1.50;1.40;;;;;;;26.67;61.46;100341.44;4975813;28;20826;-51
2022/07/14 08:42:03;;;;;;;4.70;1.80;;;;;;;27.18;59.82;100337.47;4963690;28;20534;-50
2022/07/14 08:44:30;;;;;;;2.30;1.70;;;;;;;27.65;58.89;100340.16;4976021;28;20454;-50
2022/07/14 08:46:57;;;;;;;1.93;1.20;;;;;;;28.02;57.53;100337.34;4976320;28;20461;-51
2022/07/14 08:49:23;;;;;;;15.30;1.87;;;;;;;28.33;56.21;100332.34;4957289;28;20485;-54
2022/07/14 08:52:11;;;;;;;1.60;1.50;;;;;;;28.26;55.97;100326.69;4971842;28;20521;-55
2022/07/14 08:54:38;;;;;;;1.90;1.60;;;;;;;28.53;55.47;100327.59;4985088;28;20454;-54
2022/07/14 08:57:05;;;;;;;4.20;1.63;;;;;;;28.46;54.62;100331.97;4966513;28;20465;-55
2022/07/14 08:59:31;;;;;;;1.33;1.23;;;;;;;27.77;57.76;100332.59;4975714;28;20451;-54
2022/07/14 09:01:59;;;;;;;1.73;1.63;;;;;;;27.74;57.48;100331.91;4972924;28;20456;-54
2022/07/14 09:04:25;;;;;;;7.80;0.97;;;;;;;27.44;58.35;100333.06;4966050;28;20928;-54
2022/07/14 09:06:54;;;;;;;1.70;1.60;;;;;;;27.27;58.07;100332.97;4975839;28;20478;-55
2022/07/14 09:09:23;;;;;;;1.23;1.13;;;;;;;27.52;58.49;100329.53;4976506;28;20476;-55
2022/07/14 09:11:49;;;;;;;5.73;1.43;;;;;;;27.49;58.75;100323.53;4962256;28;20472;-54
2022/07/14 09:14:25;;;;;;;5.43;1.37;;;;;;;27.26;58.89;100329.38;4975674;28;20447;-53
2022/07/14 09:16:53;;;;;;;7.27;1.33;;;;;;;27.39;59.35;100321.69;4975516;28;20450;-54
2022/07/14 09:19:20;;;;;;;2.20;1.40;;;;;;;27.22;59.01;100322.50;4975525;28;20591;-54
2022/07/14 09:21:58;;;;;;;8.93;1.93;;;;;;;27.51;59.42;100321.50;4975495;28;20562;-55
2022/07/14 09:24:25;;;;;;;3.57;1.50;;;;;;;27.72;58.66;100316.69;4975343;28;20446;-54
2022/07/14 09:26:52;;;;;;;6.20;2.67;;;;;;;27.82;57.96;100322.91;4975041;28;20948;-54
2022/07/14 09:29:25;;;;;;;1.50;1.20;;;;;;;27.75;57.76;100319.09;4975089;28;20470;-54
2022/07/14 09:31:52;;;;;;;1.73;1.63;;;;;;;27.82;58.50;100309.25;4975376;28;20446;-54
2022/07/14 09:34:28;;;;;;;3.73;1.53;;;;;;;28.02;57.61;100307.25;4975357;28;20493;-54
2022/07/14 09:37:11;;;;;;;3.93;2.10;;;;;;;28.34;55.10;100309.47;4975197;28;20450;-53
2022/07/14 09:39:51;;;;;;;1.80;1.70;;;;;;;28.29;55.31;100300.88;4974974;28;20936;-55
2022/07/14 09:42:17;;;;;;;1.37;1.27;;;;;;;28.42;54.30;100304.06;4962350;28;20575;-53
2022/07/14 09:44:44;;;;;;;2.03;1.63;;;;;;;28.46;53.39;100301.88;4975125;28;20464;-54
2022/07/14 09:47:11;;;;;;;4.60;1.97;;;;;;;28.76;50.21;100301.41;4974678;28;20450;-54
2022/07/14 09:49:39;;;;;;;1.77;1.67;;;;;;;29.23;49.22;100300.19;4973860;28;20458;-54
2022/07/14 09:52:30;;;;;;;5.70;1.83;;;;;;;28.82;50.80;100299.94;4974869;28;20881;-55
2022/07/14 09:54:57;;;;;;;2.00;1.90;;;;;;;29.60;48.50;100289.72;4986603;28;20966;-55
2022/07/14 09:57:26;;;;;;;9.03;1.50;;;;;;;29.63;49.85;100286.69;4962590;28;20570;-55
2022/07/14 10:00:06;;;;;;;1.73;1.63;;;;;;;29.63;49.45;100286.69;4975005;28;20493;-54
2022/07/14 10:02:37;;;;;;;1.63;1.53;;;;;;;28.65;51.59;100274.34;4967054;28;20486;-54
2022/07/14 10:05:08;;;;;;;15.40;2.20;;;;;;;28.95;52.31;100270.28;4970701;28;20481;-55
2022/07/14 10:07:58;;;;;;;2.70;2.33;;;;;;;29.16;51.07;100267.97;4974527;28;20470;-54
2022/07/14 10:10:25;;;;;;;8.30;2.50;;;;;;;28.89;51.72;100263.56;4968463;28;20945;-53
2022/07/14 10:12:52;;;;;;;1.30;1.20;;;;;;;29.67;50.46;100263.41;4967922;28;20521;-55
2022/07/14 10:15:19;;;;;;;2.00;1.90;;;;;;;29.44;49.90;100265.84;4954216;28;20462;-55
2022/07/14 10:17:45;;;;;;;1.47;1.30;;;;;;;29.65;48.75;100261.84;4967948;28;20478;-55
2022/07/14 10:20:15;;;;;;;3.10;1.63;;;;;;;30.03;48.59;100265.88;4974303;28;20454;-55
2022/07/14 10:22:43;;;;;;;3.80;1.73;;;;;;;29.85;50.15;100271.47;4974574;28;20446;-56
2022/07/14 10:25:10;;;;;;;1.53;1.43;;;;;;;28.55;52.07;100263.50;4974339;28;21023;-56
2022/07/14 10:27:42;;;;;;;2.37;2.17;;;;;;;29.44;51.22;100259.53;4974214;28;20493;-55
2022/07/14 10:30:10;;;;;;;8.20;1.50;;;;;;;29.73;50.48;100265.44;4974477;28;20541;-55
2022/07/14 10:33:07;;;;;;;1.40;1.30;;;;;;;29.75;48.83;100257.94;4974153;28;20557;-55
2022/07/14 10:35:52;;;;;;;1.33;1.23;;;;;;;30.46;47.24;100267.44;4973123;28;21012;-55
2022/07/14 10:38:28;;;;;;;9.30;3.00;;;;;;;30.08;48.86;100258.88;4973729;28;20466;-55
2022/07/14 10:40:54;;;;;;;1.63;1.53;;;;;;;29.85;47.95;100262.41;4970957;28;20462;-54
2022/07/14 10:43:27;;;;;;;2.80;1.20;;;;;;;29.64;48.45;100254.66;4964759;28;20450;-54
2022/07/14 10:45:55;;;;;;;2.73;2.13;;;;;;;29.27;49.63;100247.66;4974025;28;20493;-54
2022/07/14 10:48:31;;;;;;;1.43;1.33;;;;;;;29.96;48.08;100245.63;4973596;28;20474;-54
2022/07/14 10:51:17;;;;;;;1.97;1.87;;;;;;;29.85;47.91;100240.47;4973783;28;20963;-54
2022/07/14 10:54:08;;;;;;;2.00;1.90;;;;;;;29.82;48.29;100251.78;4975662;28;20494;-54
2022/07/14 10:57:16;;;;;;;1.33;1.23;;;;;;;30.04;47.89;100251.97;4965717;28;20456;-53
2022/07/14 10:59:45;;;;;;;1.97;1.83;;;;;;;30.06;48.32;100249.97;4973551;28;20505;-53
2022/07/14 11:02:12;;;;;;;3.37;2.60;;;;;;;29.90;48.05;100240.84;4968800;28;20464;-54
2022/07/14 11:05:00;;;;;;;2.00;1.50;;;;;;;29.71;48.78;100241.97;4965570;28;20505;-53
2022/07/14 11:07:46;;;;;;;3.93;2.00;;;;;;;29.93;48.84;100243.22;4973597;28;21051;-53
2022/07/14 11:10:19;;;;;;;6.00;2.13;;;;;;;30.11;48.16;100234.88;4969395;28;20601;-54
2022/07/14 11:13:04;;;;;;;2.10;2.00;;;;;;;29.39;48.59;100231.78;4965035;28;20489;-53
2022/07/14 11:15:56;;;;;;;2.20;1.67;;;;;;;29.85;48.89;100230.34;4961633;28;20538;-53
2022/07/14 11:18:26;;;;;;;1.77;0.90;;;;;;;30.21;47.61;100236.41;4973628;28;20486;-54
2022/07/14 11:21:16;;;;;;;5.63;1.50;;;;;;;29.74;49.29;100227.94;4973433;28;20455;-54
2022/07/14 11:23:49;;;;;;;3.20;1.90;;;;;;;29.86;47.66;100239.44;4973367;28;20937;-54
2022/07/14 11:26:37;;;;;;;10.33;1.60;;;;;;;30.20;48.09;100234.69;4973103;28;20455;-54
2022/07/14 11:29:13;;;;;;;2.50;1.50;;;;;;;30.36;47.85;100229.19;4972977;28;20525;-53
2022/07/14 11:31:46;;;;;;;1.70;1.60;;;;;;;31.08;45.61;100239.34;4973237;28;20469;-54
2022/07/14 11:37:15;;;;;;;3.03;2.07;;;;;;;30.96;45.32;100244.34;4973411;28;20447;-54
2022/07/14 11:40:42;;;;;;;5.63;1.67;;;;;;;31.06;45.64;100242.28;4961005;28;20454;-55
2022/07/14 11:43:36;;;;;;;1.80;1.53;;;;;;;30.78;46.26;100236.34;4973465;28;20454;-54